sensor_id;sensor_type;location;lat;lon;timestamp;pressure;altitude;pressure_sealevel;temperature;humidity
43745;BME280;29359;53.048;8.732;2023-04-15T00:00:30;101119.19;;;6.58;84.08
43745;BME280;29359;53.048;8.732;2023-04-15T00:02:31;101127.94;;;6.59;83.55
43745;BME280;29359;53.048;8.732;2023-04-15T00:04:33;101128.81;;;6.59;83.70
43745;BME280;29359;53.048;8.732;2023-04-15T00:06:36;101118.31;;;6.59;83.44
43745;BME280;29359;53.048;8.732;2023-04-15T00:08:38;101119.19;;;6.60;83.19
43745;BME280;29359;53.048;8.732;2023-04-15T00:10:39;101119.19;;;6.58;83.33
43745;BME280;29359;53.048;8.732;2023-04-15T00:12:44;101115.69;;;6.59;83.19
43745;BME280;29359;53.048;8.732;2023-04-15T00:14:46;101113.06;;;6.59;83.40
43745;BME280;29359;53.048;8.732;2023-04-15T00:17:08;101126.19;;;6.59;83.55
43745;BME280;29359;53.048;8.732;2023-04-15T00:19:09;101117.44;;;6.60;83.14
43745;BME280;29359;53.048;8.732;2023-04-15T00:21:11;101117.44;;;6.60;83.20
43745;BME280;29359;53.048;8.732;2023-04-15T00:23:13;101120.94;;;6.59;83.26
43745;BME280;29359;53.048;8.732;2023-04-15T00:25:14;101121.81;;;6.60;83.41
43745;BME280;29359;53.048;8.732;2023-04-15T00:27:16;101119.19;;;6.60;83.04
43745;BME280;29359;53.048;8.732;2023-04-15T00:29:17;101112.22;;;6.57;83.01
43745;BME280;29359;53.048;8.732;2023-04-15T00:31:19;101116.56;;;6.58;83.02
43745;BME280;29359;53.048;8.732;2023-04-15T00:33:21;101106.09;;;6.57;83.15
43745;BME280;29359;53.048;8.732;2023-04-15T00:35:22;101108.72;;;6.58;82.88
43745;BME280;29359;53.048;8.732;2023-04-15T00:37:24;101112.22;;;6.57;82.58
43745;BME280;29359;53.048;8.732;2023-04-15T00:39:26;101106.97;;;6.57;82.50
43745;BME280;29359;53.048;8.732;2023-04-15T00:41:28;101112.22;;;6.57;82.80
43745;BME280;29359;53.048;8.732;2023-04-15T00:43:30;101113.97;;;6.58;82.71
43745;BME280;29359;53.048;8.732;2023-04-15T00:45:31;101110.44;;;6.59;82.38
43745;BME280;29359;53.048;8.732;2023-04-15T00:47:34;101106.94;;;6.59;82.28
43745;BME280;29359;53.048;8.732;2023-04-15T00:49:35;101104.31;;;6.60;82.75
43745;BME280;29359;53.048;8.732;2023-04-15T00:51:37;101104.31;;;6.60;82.10
43745;BME280;29359;53.048;8.732;2023-04-15T00:53:39;101097.31;;;6.61;82.45
43745;BME280;29359;53.048;8.732;2023-04-15T00:55:41;101104.31;;;6.62;81.71
43745;BME280;29359;53.048;8.732;2023-04-15T00:57:43;101095.53;;;6.65;82.13
43745;BME280;29359;53.048;8.732;2023-04-15T00:59:44;101098.16;;;6.65;81.48
43745;BME280;29359;53.048;8.732;2023-04-15T01:01:46;101091.16;;;6.65;81.81
43745;BME280;29359;53.048;8.732;2023-04-15T01:03:49;101085.91;;;6.67;81.68
43745;BME280;29359;53.048;8.732;2023-04-15T01:05:52;101092.88;;;6.68;81.67
43745;BME280;29359;53.048;8.732;2023-04-15T01:07:58;101085.03;;;6.68;81.76
43745;BME280;29359;53.048;8.732;2023-04-15T01:10:00;101083.28;;;6.68;81.62
43745;BME280;29359;53.048;8.732;2023-04-15T01:12:03;101078.03;;;6.68;81.31
43745;BME280;29359;53.048;8.732;2023-04-15T01:14:06;101082.38;;;6.71;81.56
43745;BME280;29359;53.048;8.732;2023-04-15T01:16:10;101084.97;;;6.72;81.50
43745;BME280;29359;53.048;8.732;2023-04-15T01:18:12;101078.84;;;6.73;81.29
43745;BME280;29359;53.048;8.732;2023-04-15T01:20:14;101084.09;;;6.75;80.99
43745;BME280;29359;53.048;8.732;2023-04-15T01:22:17;101079.69;;;6.77;80.97
43745;BME280;29359;53.048;8.732;2023-04-15T01:24:18;101083.19;;;6.77;81.26
43745;BME280;29359;53.048;8.732;2023-04-15T01:26:20;101084.03;;;6.79;81.22
43745;BME280;29359;53.048;8.732;2023-04-15T01:28:22;101078.78;;;6.81;81.15
43745;BME280;29359;53.048;8.732;2023-04-15T01:30:24;101080.53;;;6.82;80.89
43745;BME280;29359;53.048;8.732;2023-04-15T01:32:26;101077.00;;;6.83;81.22
43745;BME280;29359;53.048;8.732;2023-04-15T01:34:27;101077.00;;;6.83;80.79
43745;BME280;29359;53.048;8.732;2023-04-15T01:36:29;101085.75;;;6.83;81.08
43745;BME280;29359;53.048;8.732;2023-04-15T01:38:30;101073.50;;;6.84;80.57
43745;BME280;29359;53.048;8.732;2023-04-15T01:40:33;101075.25;;;6.85;81.22
43745;BME280;29359;53.048;8.732;2023-04-15T01:42:36;101078.75;;;6.85;81.02
43745;BME280;29359;53.048;8.732;2023-04-15T01:44:37;101076.97;;;6.86;80.92
43745;BME280;29359;53.048;8.732;2023-04-15T01:46:39;101080.47;;;6.86;80.53
43745;BME280;29359;53.048;8.732;2023-04-15T01:48:41;101087.47;;;6.87;81.02
43745;BME280;29359;53.048;8.732;2023-04-15T01:50:43;101084.84;;;6.86;80.76
43745;BME280;29359;53.048;8.732;2023-04-15T01:52:45;101083.97;;;6.87;80.48
43745;BME280;29359;53.048;8.732;2023-04-15T01:54:47;101080.47;;;6.86;80.07
43745;BME280;29359;53.048;8.732;2023-04-15T01:56:49;101081.34;;;6.87;80.25
43745;BME280;29359;53.048;8.732;2023-04-15T01:58:51;101075.22;;;6.88;80.60
43745;BME280;29359;53.048;8.732;2023-04-15T02:00:53;101075.22;;;6.88;80.58
43745;BME280;29359;53.048;8.732;2023-04-15T02:02:54;101076.09;;;6.87;80.61
43745;BME280;29359;53.048;8.732;2023-04-15T02:04:56;101073.47;;;6.87;80.47
43745;BME280;29359;53.048;8.732;2023-04-15T02:06:58;101068.22;;;6.87;81.37
43745;BME280;29359;53.048;8.732;2023-04-15T02:09:00;101073.47;;;6.87;81.48
43745;BME280;29359;53.048;8.732;2023-04-15T02:11:01;101083.97;;;6.87;81.67
43745;BME280;29359;53.048;8.732;2023-04-15T02:13:03;101076.97;;;6.86;81.86
43745;BME280;29359;53.048;8.732;2023-04-15T02:15:05;101079.59;;;6.87;81.47
43745;BME280;29359;53.048;8.732;2023-04-15T02:17:07;101083.09;;;6.86;81.46
43745;BME280;29359;53.048;8.732;2023-04-15T02:19:08;101078.75;;;6.85;82.11
43745;BME280;29359;53.048;8.732;2023-04-15T02:21:10;101076.13;;;6.85;82.71
43745;BME280;29359;53.048;8.732;2023-04-15T02:23:12;101078.78;;;6.81;83.09
43745;BME280;29359;53.048;8.732;2023-04-15T02:25:14;101077.91;;;6.79;83.86
43745;BME280;29359;53.048;8.732;2023-04-15T02:27:17;101080.53;;;6.80;83.88
43745;BME280;29359;53.048;8.732;2023-04-15T02:29:18;101074.44;;;6.77;83.89
43745;BME280;29359;53.048;8.732;2023-04-15T02:31:20;101074.47;;;6.75;84.37
43745;BME280;29359;53.048;8.732;2023-04-15T02:33:22;101074.47;;;6.74;83.64
43745;BME280;29359;53.048;8.732;2023-04-15T02:35:23;101070.97;;;6.73;84.20
43745;BME280;29359;53.048;8.732;2023-04-15T02:37:26;101076.25;;;6.72;84.22
43745;BME280;29359;53.048;8.732;2023-04-15T02:39:28;101074.50;;;6.71;85.06
43745;BME280;29359;53.048;8.732;2023-04-15T02:41:30;101074.53;;;6.68;86.62
43745;BME280;29359;53.048;8.732;2023-04-15T02:43:31;101083.28;;;6.67;86.91
43745;BME280;29359;53.048;8.732;2023-04-15T02:45:33;101087.69;;;6.61;87.80
43745;BME280;29359;53.048;8.732;2023-04-15T02:47:35;101086.88;;;6.56;89.07
43745;BME280;29359;53.048;8.732;2023-04-15T02:49:37;101084.25;;;6.56;89.27
43745;BME280;29359;53.048;8.732;2023-04-15T02:51:38;101090.34;;;6.58;88.82
43745;BME280;29359;53.048;8.732;2023-04-15T02:53:41;101092.97;;;6.58;88.69
43745;BME280;29359;53.048;8.732;2023-04-15T02:55:43;101085.97;;;6.59;88.44
43745;BME280;29359;53.048;8.732;2023-04-15T02:57:44;101090.34;;;6.60;88.43
43745;BME280;29359;53.048;8.732;2023-04-15T02:59:46;101088.59;;;6.60;88.21
43745;BME280;29359;53.048;8.732;2023-04-15T03:01:47;101089.47;;;6.59;88.48
43745;BME280;29359;53.048;8.732;2023-04-15T03:03:49;101079.88;;;6.57;89.28
43745;BME280;29359;53.048;8.732;2023-04-15T03:05:51;101087.72;;;6.58;88.75
43745;BME280;29359;53.048;8.732;2023-04-15T03:07:52;101080.72;;;6.59;89.11
43745;BME280;29359;53.048;8.732;2023-04-15T03:09:54;101081.59;;;6.59;89.31
43745;BME280;29359;53.048;8.732;2023-04-15T03:11:55;101080.72;;;6.60;89.06
43745;BME280;29359;53.048;8.732;2023-04-15T03:13:57;101078.06;;;6.62;89.14
43745;BME280;29359;53.048;8.732;2023-04-15T03:15:59;101085.03;;;6.65;88.96
43745;BME280;29359;53.048;8.732;2023-04-15T03:18:00;101081.53;;;6.66;88.50
43745;BME280;29359;53.048;8.732;2023-04-15T03:20:03;101082.41;;;6.66;87.71
43745;BME280;29359;53.048;8.732;2023-04-15T03:22:05;101068.41;;;6.69;87.41
43745;BME280;29359;53.048;8.732;2023-04-15T03:24:07;101072.75;;;6.71;87.51
43745;BME280;29359;53.048;8.732;2023-04-15T03:26:08;101076.22;;;6.73;86.40
43745;BME280;29359;53.048;8.732;2023-04-15T03:28:10;101077.94;;;6.76;86.80
43745;BME280;29359;53.048;8.732;2023-04-15T03:30:12;101077.06;;;6.77;87.17
43745;BME280;29359;53.048;8.732;2023-04-15T03:32:13;101070.06;;;6.77;88.51
43745;BME280;29359;53.048;8.732;2023-04-15T03:34:15;101073.56;;;6.78;89.34
43745;BME280;29359;53.048;8.732;2023-04-15T03:36:17;101070.06;;;6.79;89.03
43745;BME280;29359;53.048;8.732;2023-04-15T03:38:18;101069.16;;;6.80;88.89
43745;BME280;29359;53.048;8.732;2023-04-15T03:40:20;101071.78;;;6.80;88.68
43745;BME280;29359;53.048;8.732;2023-04-15T03:42:22;101070.88;;;6.82;87.60
43745;BME280;29359;53.048;8.732;2023-04-15T03:44:25;101074.34;;;6.86;86.17
43745;BME280;29359;53.048;8.732;2023-04-15T03:46:26;101065.59;;;6.87;86.11
43745;BME280;29359;53.048;8.732;2023-04-15T03:48:28;101071.69;;;6.89;86.70
43745;BME280;29359;53.048;8.732;2023-04-15T03:50:29;101068.22;;;6.87;87.26
43745;BME280;29359;53.048;8.732;2023-04-15T03:52:31;101068.22;;;6.87;86.36
43745;BME280;29359;53.048;8.732;2023-04-15T03:54:32;101069.97;;;6.88;86.03
43745;BME280;29359;53.048;8.732;2023-04-15T03:56:34;101072.59;;;6.88;84.53
43745;BME280;29359;53.048;8.732;2023-04-15T03:58:36;101070.81;;;6.90;84.34
43745;BME280;29359;53.048;8.732;2023-04-15T04:00:38;101068.16;;;6.93;83.73
43745;BME280;29359;53.048;8.732;2023-04-15T04:02:39;101065.56;;;6.95;84.09
43745;BME280;29359;53.048;8.732;2023-04-15T04:04:41;101075.16;;;6.96;83.75
43745;BME280;29359;53.048;8.732;2023-04-15T04:06:44;101070.81;;;6.95;82.91
43745;BME280;29359;53.048;8.732;2023-04-15T04:08:45;101068.16;;;6.96;83.50
43745;BME280;29359;53.048;8.732;2023-04-15T04:10:47;101073.41;;;6.98;82.18
43745;BME280;29359;53.048;8.732;2023-04-15T04:12:48;101066.41;;;6.98;82.26
43745;BME280;29359;53.048;8.732;2023-04-15T04:14:50;101067.25;;;6.99;82.35
43745;BME280;29359;53.048;8.732;2023-04-15T04:16:51;101076.91;;;6.98;82.54
43745;BME280;29359;53.048;8.732;2023-04-15T04:18:53;101067.28;;;6.97;82.39
43745;BME280;29359;53.048;8.732;2023-04-15T04:20:54;101070.75;;;6.99;83.40
43745;BME280;29359;53.048;8.732;2023-04-15T04:22:56;101076.88;;;7.01;83.73
43745;BME280;29359;53.048;8.732;2023-04-15T04:24:57;101072.50;;;7.00;82.47
43745;BME280;29359;53.048;8.732;2023-04-15T04:27:00;101082.97;;;7.02;81.40
43745;BME280;29359;53.048;8.732;2023-04-15T04:29:02;101082.97;;;7.03;80.99
43745;BME280;29359;53.048;8.732;2023-04-15T04:31:04;101078.56;;;7.05;81.42
43745;BME280;29359;53.048;8.732;2023-04-15T04:33:06;101075.06;;;7.06;80.68
43745;BME280;29359;53.048;8.732;2023-04-15T04:35:08;101086.41;;;7.08;81.37
43745;BME280;29359;53.048;8.732;2023-04-15T04:37:09;101080.28;;;7.09;81.66
43745;BME280;29359;53.048;8.732;2023-04-15T04:39:11;101089.91;;;7.10;82.35
43745;BME280;29359;53.048;8.732;2023-04-15T04:41:12;101088.13;;;7.11;83.32
43745;BME280;29359;53.048;8.732;2023-04-15T04:43:14;101084.66;;;7.10;83.35
43745;BME280;29359;53.048;8.732;2023-04-15T04:45:16;101088.13;;;7.11;82.79
43745;BME280;29359;53.048;8.732;2023-04-15T04:47:18;101079.41;;;7.10;81.74
43745;BME280;29359;53.048;8.732;2023-04-15T04:49:19;101079.38;;;7.12;81.45
43745;BME280;29359;53.048;8.732;2023-04-15T04:51:21;101081.13;;;7.13;81.14
43745;BME280;29359;53.048;8.732;2023-04-15T04:53:22;101080.22;;;7.14;82.41
43745;BME280;29359;53.048;8.732;2023-04-15T04:55:24;101080.22;;;7.14;82.92
43745;BME280;29359;53.048;8.732;2023-04-15T04:57:25;101084.63;;;7.13;85.48
43745;BME280;29359;53.048;8.732;2023-04-15T04:59:27;101085.53;;;7.09;85.33
43745;BME280;29359;53.048;8.732;2023-04-15T05:01:28;101082.88;;;7.11;85.17
43745;BME280;29359;53.048;8.732;2023-04-15T05:03:30;101084.66;;;7.10;83.92
43745;BME280;29359;53.048;8.732;2023-04-15T05:05:32;101085.50;;;7.12;82.71
43745;BME280;29359;53.048;8.732;2023-04-15T05:07:33;101093.34;;;7.14;83.86
43745;BME280;29359;53.048;8.732;2023-04-15T05:09:35;101094.22;;;7.14;83.09
43745;BME280;29359;53.048;8.732;2023-04-15T05:11:37;101089.81;;;7.16;84.02
43745;BME280;29359;53.048;8.732;2023-04-15T05:13:38;101093.31;;;7.17;82.99
43745;BME280;29359;53.048;8.732;2023-04-15T05:15:40;101092.44;;;7.19;84.21
43745;BME280;29359;53.048;8.732;2023-04-15T05:17:43;101095.00;;;7.22;83.32
43745;BME280;29359;53.048;8.732;2023-04-15T05:19:45;101094.16;;;7.22;85.39
43745;BME280;29359;53.048;8.732;2023-04-15T05:21:46;101087.13;;;7.22;85.97
43745;BME280;29359;53.048;8.732;2023-04-15T05:23:48;101096.75;;;7.23;87.07
43745;BME280;29359;53.048;8.732;2023-04-15T05:25:49;101090.66;;;7.20;87.85
43745;BME280;29359;53.048;8.732;2023-04-15T05:27:51;101093.31;;;7.18;85.62
43745;BME280;29359;53.048;8.732;2023-04-15T05:29:53;101097.63;;;7.22;83.79
43745;BME280;29359;53.048;8.732;2023-04-15T05:31:55;101097.59;;;7.25;83.02
43745;BME280;29359;53.048;8.732;2023-04-15T05:33:57;101105.47;;;7.27;85.09
43745;BME280;29359;53.048;8.732;2023-04-15T05:35:58;101103.72;;;7.26;86.97
43745;BME280;29359;53.048;8.732;2023-04-15T05:37:59;101106.38;;;7.24;86.99
43745;BME280;29359;53.048;8.732;2023-04-15T05:40:01;101104.63;;;7.25;87.05
43745;BME280;29359;53.048;8.732;2023-04-15T05:42:02;101099.38;;;7.25;86.73
43745;BME280;29359;53.048;8.732;2023-04-15T05:44:06;101102.84;;;7.27;87.70
43745;BME280;29359;53.048;8.732;2023-04-15T05:46:07;101109.88;;;7.23;84.40
43745;BME280;29359;53.048;8.732;2023-04-15T05:48:09;101107.22;;;7.27;83.59
43745;BME280;29359;53.048;8.732;2023-04-15T05:50:11;101110.69;;;7.30;85.37
43745;BME280;29359;53.048;8.732;2023-04-15T05:52:12;101108.97;;;7.28;86.54
43745;BME280;29359;53.048;8.732;2023-04-15T05:54:14;101106.31;;;7.29;86.72
43745;BME280;29359;53.048;8.732;2023-04-15T05:56:18;101115.06;;;7.30;85.83
43745;BME280;29359;53.048;8.732;2023-04-15T05:58:20;101101.06;;;7.31;85.16
43745;BME280;29359;53.048;8.732;2023-04-15T06:00:22;101101.03;;;7.34;86.12
43745;BME280;29359;53.048;8.732;2023-04-15T06:02:23;101105.38;;;7.35;87.64
43745;BME280;29359;53.048;8.732;2023-04-15T06:04:25;101111.53;;;7.34;87.96
43745;BME280;29359;53.048;8.732;2023-04-15T06:06:27;101109.78;;;7.34;86.61
43745;BME280;29359;53.048;8.732;2023-04-15T06:08:28;101112.38;;;7.39;86.63
43745;BME280;29359;53.048;8.732;2023-04-15T06:10:30;101112.38;;;7.39;86.00
43745;BME280;29359;53.048;8.732;2023-04-15T06:12:36;101116.75;;;7.40;84.20
43745;BME280;29359;53.048;8.732;2023-04-15T06:14:38;101118.47;;;7.42;85.20
43745;BME280;29359;53.048;8.732;2023-04-15T06:16:40;101116.72;;;7.41;86.17
43745;BME280;29359;53.048;8.732;2023-04-15T06:18:42;101121.94;;;7.44;87.74
43745;BME280;29359;53.048;8.732;2023-04-15T06:20:44;101121.06;;;7.44;88.91
43745;BME280;29359;53.048;8.732;2023-04-15T06:22:46;101125.47;;;7.42;87.64
43745;BME280;29359;53.048;8.732;2023-04-15T06:24:48;101125.44;;;7.45;87.35
43745;BME280;29359;53.048;8.732;2023-04-15T06:26:53;101131.56;;;7.45;86.17
43745;BME280;29359;53.048;8.732;2023-04-15T06:28:54;101131.53;;;7.48;86.91
43745;BME280;29359;53.048;8.732;2023-04-15T06:30:56;101132.44;;;7.46;85.71
43745;BME280;29359;53.048;8.732;2023-04-15T06:32:58;101137.66;;;7.49;84.93
43745;BME280;29359;53.048;8.732;2023-04-15T06:35:00;101135.00;;;7.52;84.74
43745;BME280;29359;53.048;8.732;2023-04-15T06:37:01;101140.22;;;7.55;85.35
43745;BME280;29359;53.048;8.732;2023-04-15T06:39:06;101147.22;;;7.56;83.94
43745;BME280;29359;53.048;8.732;2023-04-15T06:41:08;101147.16;;;7.59;84.99
43745;BME280;29359;53.048;8.732;2023-04-15T06:43:09;101149.00;;;7.52;85.00
43745;BME280;29359;53.048;8.732;2023-04-15T06:45:11;101148.06;;;7.56;85.30
43745;BME280;29359;53.048;8.732;2023-04-15T06:47:12;101148.06;;;7.58;87.44
43745;BME280;29359;53.048;8.732;2023-04-15T06:49:15;101150.72;;;7.56;87.51
43745;BME280;29359;53.048;8.732;2023-04-15T06:51:16;101150.66;;;7.60;87.54
43745;BME280;29359;53.048;8.732;2023-04-15T06:53:18;101149.78;;;7.61;89.60
43745;BME280;29359;53.048;8.732;2023-04-15T06:55:19;101145.41;;;7.60;90.43
43745;BME280;29359;53.048;8.732;2023-04-15T06:57:21;101151.56;;;7.59;92.16
43745;BME280;29359;53.048;8.732;2023-04-15T06:59:23;101153.31;;;7.58;93.18
43745;BME280;29359;53.048;8.732;2023-04-15T07:01:25;101158.53;;;7.61;92.68
43745;BME280;29359;53.048;8.732;2023-04-15T07:03:27;101156.75;;;7.63;93.27
43745;BME280;29359;53.048;8.732;2023-04-15T07:05:29;101156.75;;;7.63;94.57
43745;BME280;29359;53.048;8.732;2023-04-15T07:07:31;101153.28;;;7.61;94.90
43745;BME280;29359;53.048;8.732;2023-04-15T07:09:32;101156.78;;;7.62;95.72
43745;BME280;29359;53.048;8.732;2023-04-15T07:11:34;101155.03;;;7.61;97.06
43745;BME280;29359;53.048;8.732;2023-04-15T07:13:36;101152.44;;;7.57;97.06
43745;BME280;29359;53.048;8.732;2023-04-15T07:15:38;101156.81;;;7.59;96.66
43745;BME280;29359;53.048;8.732;2023-04-15T07:17:40;101164.66;;;7.63;96.43
43745;BME280;29359;53.048;8.732;2023-04-15T07:19:43;101157.63;;;7.65;95.38
43745;BME280;29359;53.048;8.732;2023-04-15T07:21:46;101154.03;;;7.72;94.77
43745;BME280;29359;53.048;8.732;2023-04-15T07:23:47;101154.88;;;7.74;95.33
43745;BME280;29359;53.048;8.732;2023-04-15T07:25:49;101162.72;;;7.77;95.84
43745;BME280;29359;53.048;8.732;2023-04-15T07:27:51;101154.81;;;7.79;95.90
43745;BME280;29359;53.048;8.732;2023-04-15T07:29:53;101149.53;;;7.83;96.01
43745;BME280;29359;53.048;8.732;2023-04-15T07:31:55;101154.84;;;7.80;93.63
43745;BME280;29359;53.048;8.732;2023-04-15T07:33:57;101143.34;;;7.89;92.46
43745;BME280;29359;53.048;8.732;2023-04-15T07:36:00;101145.09;;;7.88;88.97
43745;BME280;29359;53.048;8.732;2023-04-15T07:38:01;101147.66;;;7.95;90.27
43745;BME280;29359;53.048;8.732;2023-04-15T07:40:03;101148.50;;;7.97;89.98
43745;BME280;29359;53.048;8.732;2023-04-15T07:42:07;101154.66;;;7.96;87.88
43745;BME280;29359;53.048;8.732;2023-04-15T07:44:09;101148.41;;;8.04;87.39
43745;BME280;29359;53.048;8.732;2023-04-15T07:46:10;101155.34;;;8.08;89.31
43745;BME280;29359;53.048;8.732;2023-04-15T07:48:12;101153.69;;;8.01;88.21
43745;BME280;29359;53.048;8.732;2023-04-15T07:50:13;101155.38;;;8.07;86.77
43745;BME280;29359;53.048;8.732;2023-04-15T07:52:16;101164.97;;;8.11;85.67
43745;BME280;29359;53.048;8.732;2023-04-15T07:54:18;101166.69;;;8.13;84.51
43745;BME280;29359;53.048;8.732;2023-04-15T07:56:20;101159.72;;;8.09;82.07
43745;BME280;29359;53.048;8.732;2023-04-15T07:58:22;101164.91;;;8.14;84.63
43745;BME280;29359;53.048;8.732;2023-04-15T08:00:24;101160.50;;;8.17;85.25
43745;BME280;29359;53.048;8.732;2023-04-15T08:02:25;101171.84;;;8.24;87.64
43745;BME280;29359;53.048;8.732;2023-04-15T08:04:27;101164.81;;;8.22;87.80
43745;BME280;29359;53.048;8.732;2023-04-15T08:06:29;101163.00;;;8.28;87.30
43745;BME280;29359;53.048;8.732;2023-04-15T08:08:31;101165.63;;;8.30;87.32
43745;BME280;29359;53.048;8.732;2023-04-15T08:10:32;101164.69;;;8.35;88.88
43745;BME280;29359;53.048;8.732;2023-04-15T08:12:34;101172.59;;;8.34;90.44
43745;BME280;29359;53.048;8.732;2023-04-15T08:14:36;101165.63;;;8.28;86.34
43745;BME280;29359;53.048;8.732;2023-04-15T08:16:37;101172.59;;;8.34;84.28
43745;BME280;29359;53.048;8.732;2023-04-15T08:18:39;101169.94;;;8.37;83.64
43745;BME280;29359;53.048;8.732;2023-04-15T08:20:40;101167.25;;;8.41;82.28
43745;BME280;29359;53.048;8.732;2023-04-15T08:22:42;101168.94;;;8.45;83.44
43745;BME280;29359;53.048;8.732;2023-04-15T08:24:44;101166.34;;;8.42;83.75
43745;BME280;29359;53.048;8.732;2023-04-15T08:26:45;101176.88;;;8.42;81.72
43745;BME280;29359;53.048;8.732;2023-04-15T08:28:48;101174.22;;;8.42;80.93
43745;BME280;29359;53.048;8.732;2023-04-15T08:30:49;101176.00;;;8.42;79.94
43745;BME280;29359;53.048;8.732;2023-04-15T08:32:52;101176.88;;;8.42;80.05
43745;BME280;29359;53.048;8.732;2023-04-15T08:34:54;101163.72;;;8.41;82.54
43745;BME280;29359;53.048;8.732;2023-04-15T08:36:55;101163.72;;;8.42;81.40
43745;BME280;29359;53.048;8.732;2023-04-15T08:38:57;101164.50;;;8.47;83.18
43745;BME280;29359;53.048;8.732;2023-04-15T08:41:07;101174.16;;;8.48;80.44
43745;BME280;29359;53.048;8.732;2023-04-15T08:43:17;101174.09;;;8.52;79.29
43745;BME280;29359;53.048;8.732;2023-04-15T08:45:21;101173.22;;;8.53;78.70
43745;BME280;29359;53.048;8.732;2023-04-15T08:47:25;101167.00;;;8.58;79.73
43745;BME280;29359;53.048;8.732;2023-04-15T08:49:31;101167.81;;;8.62;83.76
43745;BME280;29359;53.048;8.732;2023-04-15T08:51:33;101168.66;;;8.64;86.95
43745;BME280;29359;53.048;8.732;2023-04-15T08:53:35;101167.84;;;8.59;88.29
43745;BME280;29359;53.048;8.732;2023-04-15T08:55:42;101171.34;;;8.61;88.24
43745;BME280;29359;53.048;8.732;2023-04-15T08:57:45;101171.28;;;8.64;88.90
43745;BME280;29359;53.048;8.732;2023-04-15T08:59:46;101176.56;;;8.64;90.61
43745;BME280;29359;53.048;8.732;2023-04-15T09:01:49;101173.13;;;8.59;89.95
43745;BME280;29359;53.048;8.732;2023-04-15T09:03:52;101178.44;;;8.56;86.95
43745;BME280;29359;53.048;8.732;2023-04-15T09:05:56;101176.66;;;8.58;83.90
43745;BME280;29359;53.048;8.732;2023-04-15T09:07:57;101175.69;;;8.62;82.96
43745;BME280;29359;53.048;8.732;2023-04-15T09:09:59;101184.44;;;8.64;80.91
43745;BME280;29359;53.048;8.732;2023-04-15T09:12:00;101178.19;;;8.74;85.76
43745;BME280;29359;53.048;8.732;2023-04-15T09:14:02;101186.97;;;8.73;87.20
43745;BME280;29359;53.048;8.732;2023-04-15T09:16:04;101188.81;;;8.65;84.37
43745;BME280;29359;53.048;8.732;2023-04-15T09:18:06;101186.97;;;8.73;86.13
43745;BME280;29359;53.048;8.732;2023-04-15T09:20:11;101194.94;;;8.65;81.52
43745;BME280;29359;53.048;8.732;2023-04-15T09:22:14;101194.94;;;8.65;79.43
43745;BME280;29359;53.048;8.732;2023-04-15T09:24:15;101216.88;;;8.66;79.04
43745;BME280;29359;53.048;8.732;2023-04-15T09:26:17;101200.19;;;8.68;80.84
43745;BME280;29359;53.048;8.732;2023-04-15T09:28:23;101206.34;;;8.69;81.14
43745;BME280;29359;53.048;8.732;2023-04-15T09:30:28;101204.59;;;8.68;80.44
43745;BME280;29359;53.048;8.732;2023-04-15T09:32:30;101201.97;;;8.68;80.08
43745;BME280;29359;53.048;8.732;2023-04-15T09:34:35;101201.91;;;8.71;81.16
43745;BME280;29359;53.048;8.732;2023-04-15T09:38:55;101205.41;;;8.73;80.11
43745;BME280;29359;53.048;8.732;2023-04-15T09:40:58;101212.38;;;8.75;81.46
43745;BME280;29359;53.048;8.732;2023-04-15T09:42:59;101217.63;;;8.77;80.30
43745;BME280;29359;53.048;8.732;2023-04-15T09:45:10;101222.00;;;8.78;80.04
43745;BME280;29359;53.048;8.732;2023-04-15T09:47:30;101222.88;;;8.77;78.83
43745;BME280;29359;53.048;8.732;2023-04-15T09:49:32;101223.78;;;8.76;78.43
43745;BME280;29359;53.048;8.732;2023-04-15T09:51:34;101231.66;;;8.77;78.51
43745;BME280;29359;53.048;8.732;2023-04-15T09:53:36;101234.31;;;8.76;78.72
43745;BME280;29359;53.048;8.732;2023-04-15T09:55:45;101229.88;;;8.79;79.50
43745;BME280;29359;53.048;8.732;2023-04-15T09:57:47;101235.13;;;8.79;79.18
43745;BME280;29359;53.048;8.732;2023-04-15T09:59:49;101234.25;;;8.79;79.99
43745;BME280;29359;53.048;8.732;2023-04-15T10:01:51;101232.47;;;8.81;80.32
43745;BME280;29359;53.048;8.732;2023-04-15T10:03:55;101235.09;;;8.82;81.11
43745;BME280;29359;53.048;8.732;2023-04-15T10:05:59;101224.56;;;8.81;80.71
43745;BME280;29359;53.048;8.732;2023-04-15T10:08:02;101228.13;;;8.78;79.79
43745;BME280;29359;53.048;8.732;2023-04-15T10:10:05;101222.88;;;8.78;79.33
43745;BME280;29359;53.048;8.732;2023-04-15T10:12:07;101235.94;;;8.83;79.20
43745;BME280;29359;53.048;8.732;2023-04-15T10:14:09;101232.41;;;8.86;79.26
43745;BME280;29359;53.048;8.732;2023-04-15T10:16:14;101231.50;;;8.88;79.68
43745;BME280;29359;53.048;8.732;2023-04-15T10:18:18;101230.53;;;8.92;82.35
43745;BME280;29359;53.048;8.732;2023-04-15T10:20:21;101234.97;;;8.90;81.43
43745;BME280;29359;53.048;8.732;2023-04-15T10:22:23;101229.69;;;8.92;79.64
43745;BME280;29359;53.048;8.732;2023-04-15T10:24:27;101234.00;;;8.96;80.60
43745;BME280;29359;53.048;8.732;2023-04-15T10:26:30;101236.63;;;8.96;79.98
43745;BME280;29359;53.048;8.732;2023-04-15T10:28:32;101241.00;;;8.97;79.29
43745;BME280;29359;53.048;8.732;2023-04-15T10:30:33;101234.81;;;9.01;80.89
43745;BME280;29359;53.048;8.732;2023-04-15T10:32:35;101239.19;;;9.00;79.54
43745;BME280;29359;53.048;8.732;2023-04-15T10:34:38;101240.06;;;9.01;78.53
43745;BME280;29359;53.048;8.732;2023-04-15T10:36:40;101240.88;;;9.06;79.55
43745;BME280;29359;53.048;8.732;2023-04-15T10:38:44;101232.94;;;9.07;79.71
43745;BME280;29359;53.048;8.732;2023-04-15T10:40:46;101244.31;;;9.12;79.72
43745;BME280;29359;53.048;8.732;2023-04-15T10:42:47;101243.38;;;9.15;79.61
43745;BME280;29359;53.048;8.732;2023-04-15T10:44:51;101241.56;;;9.19;78.86
43745;BME280;29359;53.048;8.732;2023-04-15T10:46:57;101245.94;;;9.20;78.09
43745;BME280;29359;53.048;8.732;2023-04-15T10:49:09;101245.91;;;9.21;78.72